Time;durP1;ratioP1;P1;durP2;ratioP2;P2;SDS_P1;SDS_P2;PMS_P1;PMS_P2;Temp;Humidity;BMP_temperature;BMP_pressure;BME280_temperature;BME280_humidity;BME280_pressure;Samples;Min_cycle;Max_cycle;Signal;HPM_P1;HPM_P2
2023/10/05 00:02:10;;;;;;;8.23;2.80;;;;;;;13.75;100.00;101286.84;5190602;28;20733;-72
2023/10/05 00:04:41;;;;;;;7.15;2.53;;;;;;;13.77;100.00;101297.31;5183921;28;20036;-72
2023/10/05 00:07:26;;;;;;;9.82;2.70;;;;;;;13.74;100.00;101284.28;5209819;28;20425;-72
2023/10/05 00:09:57;;;;;;;12.70;2.97;;;;;;;13.66;100.00;101281.94;5210147;28;20028;-72
2023/10/05 00:12:28;;;;;;;10.38;2.95;;;;;;;13.63;100.00;101279.44;5204595;28;20036;-72
2023/10/05 00:17:37;;;;;;;9.32;3.13;;;;;;;13.47;100.00;101274.78;5204758;28;20025;-71
2023/10/05 00:20:19;;;;;;;11.15;3.10;;;;;;;13.50;100.00;101261.53;5187992;28;20071;-72
2023/10/05 00:22:51;;;;;;;12.18;3.45;;;;;;;13.53;100.00;101272.78;5189463;28;20128;-72
2023/10/05 00:25:23;;;;;;;10.25;3.47;;;;;;;13.54;100.00;101269.25;5195037;28;20262;-72
2023/10/05 00:27:55;;;;;;;9.57;3.25;;;;;;;13.49;100.00;101265.94;5209744;28;20032;-72
2023/10/05 00:30:26;;;;;;;15.57;4.60;;;;;;;13.51;100.00;101271.13;5211409;28;20029;-72
2023/10/05 00:32:58;;;;;;;15.50;4.45;;;;;;;13.51;100.00;101263.25;5207250;28;20432;-72
2023/10/05 00:35:29;;;;;;;13.98;4.20;;;;;;;13.48;100.00;101268.63;5188842;28;20410;-72
2023/10/05 00:38:12;;;;;;;13.32;4.00;;;;;;;13.39;100.00;101264.56;5209214;28;20497;-72
2023/10/05 00:40:50;;;;;;;14.93;4.55;;;;;;;13.36;100.00;101263.78;5209411;28;20021;-72
2023/10/05 00:43:24;;;;;;;15.13;4.22;;;;;;;13.40;100.00;101252.28;5205205;28;20022;-72
2023/10/05 00:45:57;;;;;;;13.07;3.42;;;;;;;13.39;100.00;101253.22;5193118;28;20037;-72
2023/10/05 00:51:06;;;;;;;14.43;3.30;;;;;;;13.40;100.00;101244.41;5209056;28;20029;-72
2023/10/05 00:53:38;;;;;;;9.63;2.83;;;;;;;13.34;100.00;101242.00;5189101;28;20029;-72
2023/10/05 00:56:11;;;;;;;12.00;3.63;;;;;;;13.38;100.00;101241.00;5209878;28;20566;-72
2023/10/05 00:58:44;;;;;;;9.55;3.40;;;;;;;13.38;100.00;101231.31;5192099;28;20464;-72
2023/10/05 01:01:15;;;;;;;10.88;2.75;;;;;;;13.43;100.00;101229.38;5199566;28;20492;-72
2023/10/05 01:04:17;;;;;;;12.27;3.17;;;;;;;13.30;100.00;101224.66;5191054;28;20091;-72
2023/10/05 01:06:42;;;;;;;9.20;2.83;;;;;;;13.27;100.00;101232.63;5209304;28;20064;-72
2023/10/05 01:09:15;;;;;;;14.95;3.58;;;;;;;13.30;100.00;101229.91;5208906;28;20522;-72
2023/10/05 01:11:52;;;;;;;9.27;2.78;;;;;;;13.31;100.00;101232.47;5202666;28;20034;-72
2023/10/05 01:14:27;;;;;;;12.38;3.38;;;;;;;13.31;100.00;101240.34;5211602;28;20455;-72
2023/10/05 01:16:58;;;;;;;11.95;3.40;;;;;;;13.36;100.00;101237.53;5210948;28;20025;-72
2023/10/05 01:19:29;;;;;;;11.93;3.60;;;;;;;13.36;100.00;101240.16;5191896;28;20040;-73
2023/10/05 01:22:04;;;;;;;12.60;3.47;;;;;;;13.44;100.00;101243.38;5206436;28;20037;-72
2023/10/05 01:24:36;;;;;;;;;;;;;;;13.47;100.00;101240.63;5208328;28;20033;-72
2023/10/05 01:27:06;;;;;;;13.13;3.20;;;;;;;13.43;100.00;101234.63;5215235;28;20071;-72
2023/10/05 01:29:36;;;;;;;14.75;3.25;;;;;;;13.49;100.00;101239.69;5213600;28;20024;-72
2023/10/05 01:32:10;;;;;;;12.55;3.33;;;;;;;13.49;100.00;101239.69;5214207;28;20060;-72
2023/10/05 01:34:41;;;;;;;13.15;3.80;;;;;;;13.52;100.00;101229.06;5210609;28;20162;-72
2023/10/05 01:37:12;;;;;;;8.77;3.20;;;;;;;13.63;100.00;101226.03;5214455;28;20608;-72
2023/10/05 01:39:44;;;;;;;10.88;3.30;;;;;;;13.70;100.00;101212.59;5211545;28;20178;-72
2023/10/05 01:42:14;;;;;;;12.32;3.58;;;;;;;13.66;100.00;101224.16;5194756;28;20165;-72
2023/10/05 01:44:49;;;;;;;13.75;3.35;;;;;;;13.66;100.00;101221.53;5211279;28;20394;-72
2023/10/05 01:47:22;;;;;;;12.35;3.70;;;;;;;13.59;100.00;101229.69;5212006;28;20021;-72
2023/10/05 01:49:53;;;;;;;10.50;3.60;;;;;;;13.65;100.00;101218.94;5195678;28;20029;-72
2023/10/05 01:52:24;;;;;;;14.43;3.65;;;;;;;13.72;100.00;101212.56;5214706;28;20048;-72
2023/10/05 01:54:54;;;;;;;13.27;3.60;;;;;;;13.71;100.00;101218.72;5211628;28;20025;-72
2023/10/05 01:57:27;;;;;;;15.40;4.45;;;;;;;13.73;100.00;101224.78;5194478;28;20055;-71
2023/10/05 01:59:59;;;;;;;13.50;3.70;;;;;;;13.75;100.00;101218.53;5213338;28;20495;-72
2023/10/05 02:02:30;;;;;;;12.68;3.95;;;;;;;13.80;100.00;101215.72;5205652;28;20076;-72
2023/10/05 02:05:01;;;;;;;9.73;3.22;;;;;;;13.89;100.00;101207.50;5208296;28;20173;-72
2023/10/05 02:07:31;;;;;;;10.45;3.63;;;;;;;13.97;100.00;101210.69;5212323;28;20100;-72
2023/10/05 02:10:09;;;;;;;15.90;4.07;;;;;;;13.81;100.00;101206.94;5212727;28;20025;-72
2023/10/05 02:12:39;;;;;;;9.55;3.20;;;;;;;13.83;100.00;101197.22;5208180;28;20389;-72
2023/10/05 02:15:16;;;;;;;10.85;3.67;;;;;;;13.93;100.00;101198.59;5214389;28;20117;-72
2023/10/05 02:17:46;;;;;;;12.35;3.95;;;;;;;13.89;100.00;101194.38;5193420;28;20506;-72
2023/10/05 02:20:38;;;;;;;12.32;3.45;;;;;;;13.88;100.00;101192.66;5197159;28;20211;-72
2023/10/05 02:23:24;;;;;;;12.93;3.33;;;;;;;13.81;100.00;101194.66;5212625;28;20040;-72
2023/10/05 02:26:10;;;;;;;9.30;3.65;;;;;;;13.79;100.00;101195.63;5214620;28;20368;-72
2023/10/05 02:28:41;;;;;;;16.15;3.50;;;;;;;13.86;100.00;101191.84;5212314;28;20032;-72
2023/10/05 02:31:13;;;;;;;8.55;3.22;;;;;;;13.91;100.00;101176.78;5212794;28;20067;-72
2023/10/05 02:33:44;;;;;;;13.50;4.28;;;;;;;13.84;100.00;101184.03;5211843;28;20024;-72
2023/10/05 02:36:20;;;;;;;11.82;3.38;;;;;;;13.84;100.00;101178.78;5192468;28;20021;-72
2023/10/05 02:38:54;;;;;;;11.55;3.30;;;;;;;13.89;100.00;101179.44;5194031;28;20112;-72
2023/10/05 02:41:37;;;;;;;12.00;3.20;;;;;;;13.83;100.00;101174.44;5213123;28;20896;-71
2023/10/05 02:44:17;;;;;;;11.63;3.13;;;;;;;13.86;100.00;101181.31;5212879;28;20040;-72
2023/10/05 02:46:47;;;;;;;13.18;3.47;;;;;;;13.84;100.00;101172.66;5194077;28;20025;-73
2023/10/05 02:49:18;;;;;;;10.45;3.30;;;;;;;13.94;100.00;101163.50;5196455;28;20024;-72
2023/10/05 02:51:52;;;;;;;8.95;2.75;;;;;;;14.01;100.00;101163.19;5176957;28;20031;-72
2023/10/05 02:54:24;;;;;;;10.82;3.78;;;;;;;14.01;100.00;101159.69;5194719;28;20098;-72
2023/10/05 02:56:55;;;;;;;11.10;3.63;;;;;;;13.97;100.00;101169.50;5195121;28;20175;-72
2023/10/05 02:59:26;;;;;;;11.75;3.58;;;;;;;14.05;100.00;101166.56;5208909;28;20123;-71
2023/10/05 03:02:03;;;;;;;10.27;3.33;;;;;;;14.05;100.00;101174.47;5194622;28;20025;-72
2023/10/05 03:07:25;;;;;;;11.13;3.65;;;;;;;14.18;100.00;101162.53;5212159;28;20098;-72
2023/10/05 03:09:59;;;;;;;14.70;3.92;;;;;;;13.99;100.00;101172.06;5207178;28;20056;-72
2023/10/05 03:12:29;;;;;;;13.15;3.42;;;;;;;14.00;100.00;101163.25;5206600;28;20029;-72
2023/10/05 03:15:05;;;;;;;13.00;3.38;;;;;;;14.09;100.00;101160.25;5213185;28;20064;-72
2023/10/05 03:17:37;;;;;;;13.48;4.22;;;;;;;14.03;100.00;101156.09;5210100;28;20025;-72
2023/10/05 03:20:15;;;;;;;9.30;3.47;;;;;;;14.05;100.00;101162.16;5206723;28;20044;-72
2023/10/05 03:22:46;;;;;;;12.07;3.92;;;;;;;14.09;100.00;101157.63;5206622;28;20074;-72
2023/10/05 03:25:16;;;;;;;13.73;3.67;;;;;;;14.11;100.00;101150.53;5211530;28;20025;-72
2023/10/05 03:27:48;;;;;;;10.50;3.53;;;;;;;14.12;100.00;101160.13;5211536;28;20485;-73
2023/10/05 03:30:23;;;;;;;11.15;3.72;;;;;;;14.13;100.00;101154.81;5214296;28;20292;-72
2023/10/05 03:33:00;;;;;;;9.82;3.30;;;;;;;13.94;100.00;101153.81;5196869;28;20147;-72
2023/10/05 03:35:33;;;;;;;11.57;4.00;;;;;;;14.06;100.00;101153.34;5195066;28;20025;-72
2023/10/05 03:38:08;;;;;;;14.60;3.53;;;;;;;13.98;100.00;101152.81;5213552;28;20186;-73
2023/10/05 03:40:43;;;;;;;11.75;3.67;;;;;;;14.00;100.00;101147.47;5194127;28;20052;-72
2023/10/05 03:43:13;;;;;;;13.30;3.75;;;;;;;14.06;100.00;101157.75;5212292;28;20059;-72
2023/10/05 03:45:44;;;;;;;15.45;3.88;;;;;;;14.04;100.00;101154.31;5212262;28;20091;-72
2023/10/05 03:48:14;;;;;;;9.18;3.20;;;;;;;14.04;100.00;101149.06;5207888;28;20090;-72
2023/10/05 03:50:45;;;;;;;12.95;3.85;;;;;;;14.10;100.00;101154.94;5208441;28;20025;-72
2023/10/05 03:53:16;;;;;;;12.95;3.75;;;;;;;14.02;100.00;101158.78;5213150;28;20435;-72
2023/10/05 03:55:47;;;;;;;10.55;3.60;;;;;;;14.13;100.00;101140.81;5209107;28;20382;-72
2023/10/05 03:58:17;;;;;;;9.23;3.35;;;;;;;14.20;100.00;101134.41;5211632;28;20036;-72
2023/10/05 04:00:49;;;;;;;11.05;2.90;;;;;;;14.30;100.00;101141.88;5209690;28;20017;-72
2023/10/05 04:03:24;;;;;;;10.70;3.50;;;;;;;14.25;100.00;101137.72;5211827;28;20645;-72
2023/10/05 04:05:54;;;;;;;11.98;3.13;;;;;;;14.17;100.00;101134.53;5193200;28;20483;-72
2023/10/05 04:08:27;;;;;;;10.90;3.03;;;;;;;14.23;100.00;101139.56;5209947;28;20033;-72
2023/10/05 04:10:59;;;;;;;11.90;3.33;;;;;;;14.37;100.00;101131.94;5208028;28;20061;-72
2023/10/05 04:13:32;;;;;;;12.13;3.45;;;;;;;14.25;100.00;101135.09;5207872;28;20025;-72
2023/10/05 04:16:07;;;;;;;13.38;3.53;;;;;;;14.29;100.00;101139.28;5211261;28;20028;-72
2023/10/05 04:18:38;;;;;;;14.90;3.65;;;;;;;14.34;100.00;101130.31;5206754;28;20357;-72
2023/10/05 04:21:10;;;;;;;10.57;3.15;;;;;;;14.28;100.00;101130.53;5211959;28;20100;-72
2023/10/05 04:23:43;;;;;;;11.30;3.35;;;;;;;14.26;100.00;101123.66;5209992;28;20405;-72
2023/10/05 04:26:14;;;;;;;8.93;2.72;;;;;;;14.28;100.00;101125.28;5194822;28;20029;-72
2023/10/05 04:28:52;;;;;;;13.02;3.08;;;;;;;14.22;100.00;101122.06;5207969;28;20667;-72
2023/10/05 04:31:25;;;;;;;11.68;3.20;;;;;;;14.26;100.00;101132.38;5207733;28;20052;-72
2023/10/05 04:33:56;;;;;;;11.73;3.22;;;;;;;14.30;100.00;101125.22;5205236;28;20041;-72
2023/10/05 04:36:26;;;;;;;9.50;3.35;;;;;;;14.33;100.00;101119.84;5208134;28;20032;-72
2023/10/05 04:38:56;;;;;;;11.70;3.22;;;;;;;14.38;100.00;101117.84;5210876;28;20390;-72
2023/10/05 04:41:39;;;;;;;13.88;3.65;;;;;;;14.34;100.00;101121.53;5210448;28;20277;-72
2023/10/05 04:44:12;;;;;;;12.40;3.05;;;;;;;14.32;100.00;101119.00;5213397;28;20445;-72
2023/10/05 04:46:49;;;;;;;8.48;2.72;;;;;;;14.28;100.00;101120.03;5187322;28;20037;-72
2023/10/05 04:49:20;;;;;;;8.98;2.83;;;;;;;14.28;100.00;101111.28;5190949;28;20028;-72
2023/10/05 04:51:51;;;;;;;8.05;2.65;;;;;;;14.25;100.00;101117.53;5206837;28;20430;-72
2023/10/05 04:54:25;;;;;;;13.63;3.28;;;;;;;14.19;100.00;101109.03;5199589;28;20037;-72
2023/10/05 04:57:07;;;;;;;15.98;3.25;;;;;;;14.18;100.00;101115.22;5192936;28;20040;-72
2023/10/05 04:59:48;;;;;;;13.27;3.55;;;;;;;14.24;100.00;101115.81;5212040;28;20036;-72
2023/10/05 05:02:21;;;;;;;11.60;3.20;;;;;;;14.27;100.00;101112.22;5210893;28;20183;-72
2023/10/05 05:07:21;;;;;;;10.43;3.20;;;;;;;14.27;100.00;101120.09;5210729;28;20402;-72
2023/10/05 05:09:52;;;;;;;13.88;3.22;;;;;;;14.23;100.00;101122.00;5195192;28;20025;-72
2023/10/05 05:12:26;;;;;;;9.55;3.08;;;;;;;14.21;100.00;101112.44;5194614;28;20021;-72
2023/10/05 05:14:57;;;;;;;13.13;3.20;;;;;;;14.14;100.00;101108.34;5207929;28;20114;-72
2023/10/05 05:17:28;;;;;;;7.32;2.83;;;;;;;14.15;100.00;101110.94;5211952;28;20479;-72
2023/10/05 05:19:58;;;;;;;13.15;3.97;;;;;;;14.14;100.00;101108.34;5211347;28;20078;-72
2023/10/05 05:22:31;;;;;;;9.15;2.70;;;;;;;14.14;100.00;101109.22;5211115;28;20539;-72
2023/10/05 05:25:06;;;;;;;14.13;2.90;;;;;;;14.14;100.00;101103.09;5194588;28;20494;-72
2023/10/05 05:27:36;;;;;;;11.48;3.28;;;;;;;14.21;100.00;101100.19;5193978;28;20025;-72
2023/10/05 05:30:15;;;;;;;14.52;2.67;;;;;;;14.14;100.00;101103.09;5213603;28;20036;-72
2023/10/05 05:32:45;;;;;;;7.57;2.60;;;;;;;14.16;100.00;101102.16;5210199;28;20025;-72
2023/10/05 05:35:16;;;;;;;10.70;2.53;;;;;;;14.17;100.00;101105.63;5196359;28;20086;-72
2023/10/05 05:37:47;;;;;;;7.38;2.42;;;;;;;14.19;100.00;101106.41;5197612;28;20474;-72
2023/10/05 05:40:18;;;;;;;13.90;3.20;;;;;;;14.16;100.00;101103.91;5199342;28;20029;-71
2023/10/05 05:42:52;;;;;;;9.70;3.10;;;;;;;14.23;100.00;101115.91;5196400;28;20025;-72
2023/10/05 05:45:24;;;;;;;9.43;2.50;;;;;;;14.11;100.00;101108.47;5197582;28;20461;-71
2023/10/05 05:47:54;;;;;;;8.45;2.50;;;;;;;14.13;100.00;101111.91;5198738;28;20491;-72
2023/10/05 05:50:29;;;;;;;7.30;2.80;;;;;;;14.12;100.00;101113.66;5216796;28;20540;-72
2023/10/05 05:52:59;;;;;;;11.32;2.92;;;;;;;14.17;100.00;101121.41;5192607;28;20029;-72
2023/10/05 05:55:29;;;;;;;9.13;2.70;;;;;;;14.11;100.00;101119.00;5207817;28;20410;-72
2023/10/05 05:58:00;;;;;;;9.70;2.90;;;;;;;14.10;100.00;101118.13;5197211;28;20056;-72
2023/10/05 06:00:30;;;;;;;12.82;2.50;;;;;;;14.11;100.00;101111.94;5192846;28;20028;-72
2023/10/05 06:03:01;;;;;;;10.27;2.65;;;;;;;14.12;100.00;101115.44;5215867;28;20035;-72
2023/10/05 06:05:31;;;;;;;8.63;2.50;;;;;;;14.05;100.00;101119.25;5211095;28;20337;-72
2023/10/05 06:08:03;;;;;;;9.55;2.55;;;;;;;14.04;100.00;101123.63;5215890;28;20448;-72
2023/10/05 06:10:35;;;;;;;12.43;2.53;;;;;;;14.12;100.00;101123.34;5196313;28;20387;-72
2023/10/05 06:13:06;;;;;;;13.18;2.92;;;;;;;14.04;100.00;101131.53;5212695;28;20039;-72
2023/10/05 06:15:38;;;;;;;9.35;2.70;;;;;;;14.13;100.00;101132.94;5213042;28;20035;-72
2023/10/05 06:18:08;;;;;;;9.73;2.80;;;;;;;14.24;100.00;101136.84;5216613;28;20021;-72
2023/10/05 06:20:38;;;;;;;10.95;2.95;;;;;;;14.33;100.00;101135.63;5214431;28;20049;-72
2023/10/05 06:23:09;;;;;;;10.82;2.65;;;;;;;14.33;100.00;101138.25;5216136;28;20031;-72
2023/10/05 06:25:39;;;;;;;8.75;2.60;;;;;;;14.23;100.00;101134.31;5215715;28;20070;-72
2023/10/05 06:28:09;;;;;;;9.25;2.63;;;;;;;14.33;100.00;101135.63;5216981;28;20466;-73
2023/10/05 06:30:39;;;;;;;8.07;2.47;;;;;;;14.23;100.00;101132.50;5212530;28;20071;-72
2023/10/05 06:33:10;;;;;;;9.13;2.53;;;;;;;14.29;100.00;101132.25;5198104;28;20033;-72
2023/10/05 06:35:40;;;;;;;12.20;2.67;;;;;;;14.33;100.00;101125.97;5213321;28;20033;-72
2023/10/05 06:38:10;;;;;;;9.68;2.75;;;;;;;14.25;100.00;101135.09;5216374;28;20028;-73
2023/10/05 06:40:41;;;;;;;8.45;2.47;;;;;;;14.43;100.00;101129.91;5211319;28;20099;-72
2023/10/05 06:43:11;;;;;;;10.45;2.35;;;;;;;14.48;100.00;101122.69;5199040;28;20029;-73
2023/10/05 06:45:45;;;;;;;10.02;2.40;;;;;;;14.54;100.00;101129.44;5213329;28;20029;-73
2023/10/05 06:48:15;;;;;;;8.77;2.42;;;;;;;14.50;100.00;101130.50;5193983;28;20055;-73
2023/10/05 06:50:46;;;;;;;14.68;2.60;;;;;;;14.51;100.00;101133.06;5213240;28;20029;-73
2023/10/05 06:53:17;;;;;;;8.70;2.50;;;;;;;14.65;100.00;101128.09;5214679;28;20120;-73
2023/10/05 06:55:48;;;;;;;7.13;2.40;;;;;;;14.77;100.00;101132.78;5213755;28;20542;-72
2023/10/05 06:58:18;;;;;;;5.78;2.17;;;;;;;14.78;100.00;101136.28;5199171;28;20450;-73
2023/10/05 07:00:49;;;;;;;8.32;2.53;;;;;;;14.73;100.00;101140.91;5195458;28;20025;-72
2023/10/05 07:03:20;;;;;;;9.45;2.50;;;;;;;14.93;100.00;101136.47;5199272;28;20040;-73
2023/10/05 07:05:50;;;;;;;6.03;2.10;;;;;;;15.07;99.45;101132.31;5214354;28;20115;-73
2023/10/05 07:08:20;;;;;;;7.55;2.45;;;;;;;14.92;100.00;101143.50;5199121;28;20127;-72
2023/10/05 07:10:51;;;;;;;8.55;1.90;;;;;;;15.23;98.06;101138.59;5214399;28;20039;-72
2023/10/05 07:13:22;;;;;;;6.60;2.03;;;;;;;15.36;98.61;101139.75;5215671;28;20033;-72
2023/10/05 07:15:53;;;;;;;7.32;2.53;;;;;;;15.41;96.61;101147.44;5214905;28;20029;-73
2023/10/05 07:18:24;;;;;;;8.98;2.20;;;;;;;15.63;96.10;101148.16;5198674;28;20043;-73
2023/10/05 07:20:54;;;;;;;7.45;1.90;;;;;;;15.70;95.12;101150.41;5214204;28;20033;-73
2023/10/05 07:23:25;;;;;;;6.38;1.92;;;;;;;16.24;93.23;101152.19;5213846;28;20393;-72
2023/10/05 07:25:55;;;;;;;8.40;2.38;;;;;;;16.38;90.96;101155.88;5197887;28;20035;-73
2023/10/05 07:28:25;;;;;;;5.03;1.98;;;;;;;16.15;92.30;101158.78;5213363;28;20418;-72
2023/10/05 07:30:56;;;;;;;6.82;2.45;;;;;;;16.55;89.66;101171.72;5216656;28;20032;-73
2023/10/05 07:33:26;;;;;;;7.10;2.00;;;;;;;16.51;89.38;101180.72;5199360;28;20040;-72
2023/10/05 07:35:57;;;;;;;5.63;1.95;;;;;;;16.36;90.36;101185.91;5213819;28;20485;-73
2023/10/05 07:38:27;;;;;;;6.47;1.70;;;;;;;16.29;90.62;101185.34;5213164;28;20050;-72
2023/10/05 07:41:03;;;;;;;6.65;2.17;;;;;;;16.38;91.25;101192.81;5198964;28;20028;-73
2023/10/05 07:43:34;;;;;;;5.43;1.83;;;;;;;16.64;90.33;101192.38;5198146;28;20055;-73
2023/10/05 07:46:06;;;;;;;7.68;1.95;;;;;;;17.44;87.18;101189.00;5197877;28;20470;-73
2023/10/05 07:48:37;;;;;;;5.28;1.70;;;;;;;18.28;84.15;101181.63;5196038;28;20037;-73
2023/10/05 07:51:07;;;;;;;6.72;1.80;;;;;;;18.55;80.44;101186.19;5214858;28;20025;-72
2023/10/05 07:53:37;;;;;;;3.42;1.50;;;;;;;19.37;77.93;101181.16;5209370;28;20075;-73
2023/10/05 07:56:07;;;;;;;7.37;1.90;;;;;;;19.36;78.74;101167.97;5213326;28;20082;-73
2023/10/05 07:58:38;;;;;;;4.53;2.10;;;;;;;20.25;74.24;101181.66;5211806;28;20280;-73
2023/10/05 08:01:09;;;;;;;5.13;2.03;;;;;;;20.70;73.56;101174.16;5213084;28;20024;-73
2023/10/05 08:03:40;;;;;;;7.15;2.15;;;;;;;20.99;71.84;101187.19;5195605;28;20040;-73
2023/10/05 08:06:14;;;;;;;6.55;2.15;;;;;;;21.41;69.66;101178.06;5214630;28;20036;-73
2023/10/05 08:08:45;;;;;;;6.13;2.35;;;;;;;21.47;70.62;101178.47;5210240;28;20444;-73
2023/10/05 08:11:20;;;;;;;6.82;2.17;;;;;;;20.85;70.51;101178.44;5214851;28;20107;-73
2023/10/05 08:13:52;;;;;;;7.43;2.17;;;;;;;20.45;72.97;101184.72;5196320;28;20025;-73
2023/10/05 08:16:22;;;;;;;7.00;2.25;;;;;;;20.03;74.22;101192.84;5211416;28;20025;-73
2023/10/05 08:18:54;;;;;;;8.15;2.08;;;;;;;20.01;74.86;101193.84;5216379;28;20375;-73
2023/10/05 08:21:24;;;;;;;6.78;2.30;;;;;;;20.38;74.23;101199.38;5214868;28;20033;-72
2023/10/05 08:23:54;;;;;;;8.35;2.20;;;;;;;20.63;73.03;101199.44;5215042;28;20047;-73
2023/10/05 08:26:28;;;;;;;7.07;2.53;;;;;;;20.86;71.31;101196.97;5213935;28;20025;-73
2023/10/05 08:28:59;;;;;;;7.13;2.22;;;;;;;20.40;72.49;101199.25;5217953;28;20040;-73
2023/10/05 08:31:29;;;;;;;7.97;2.58;;;;;;;20.47;72.57;101204.06;5214561;28;20032;-73
2023/10/05 08:34:00;;;;;;;10.60;2.63;;;;;;;20.82;71.20;101207.84;5199339;28;20171;-73
2023/10/05 08:36:31;;;;;;;5.88;2.20;;;;;;;20.14;73.68;101203.59;5213307;28;20287;-73
2023/10/05 08:39:03;;;;;;;5.90;1.85;;;;;;;20.31;72.86;101215.81;5217348;28;20029;-73
2023/10/05 08:41:39;;;;;;;6.22;1.90;;;;;;;20.94;72.29;101213.25;5216354;28;20029;-73
2023/10/05 08:44:26;;;;;;;6.63;2.28;;;;;;;21.25;72.02;101219.97;5195765;28;20521;-73
2023/10/05 08:46:58;;;;;;;7.70;1.73;;;;;;;20.70;71.70;101212.19;5214669;28;20033;-73
2023/10/05 08:49:28;;;;;;;6.38;1.90;;;;;;;20.42;72.54;101213.28;5217262;28;20020;-73
2023/10/05 08:51:59;;;;;;;8.80;2.67;;;;;;;20.42;72.36;101222.09;5217578;28;20529;-73
2023/10/05 08:54:33;;;;;;;8.40;2.10;;;;;;;20.40;71.96;101224.00;5214476;28;20053;-73
2023/10/05 08:57:09;;;;;;;5.65;2.03;;;;;;;19.94;74.76;101217.28;5212841;28;20064;-73
2023/10/05 08:59:47;;;;;;;12.25;2.95;;;;;;;19.74;75.07;101225.66;5196949;28;20454;-72
2023/10/05 09:02:21;;;;;;;8.85;2.40;;;;;;;19.50;77.61;101224.53;5195447;28;20020;-73
2023/10/05 09:04:57;;;;;;;8.88;2.38;;;;;;;18.93;77.72;101235.13;5194728;28;20029;-72
2023/10/05 09:07:38;;;;;;;5.70;1.90;;;;;;;18.79;79.30;101235.06;5215875;28;20032;-72
2023/10/05 09:10:24;;;;;;;4.65;2.10;;;;;;;18.67;79.56;101248.19;5216369;28;20193;-73
2023/10/05 09:12:58;;;;;;;12.05;2.47;;;;;;;18.49;81.02;101241.31;5214231;28;20317;-73
2023/10/05 09:15:34;;;;;;;7.97;2.58;;;;;;;18.49;80.93;101242.16;5197281;28;20555;-73
2023/10/05 09:20:37;;;;;;;6.57;2.20;;;;;;;18.49;81.83;101258.03;5211837;28;20025;-73
2023/10/05 09:23:09;;;;;;;9.50;2.70;;;;;;;18.27;81.73;101251.34;5198033;28;20036;-73
2023/10/05 09:25:47;;;;;;;7.63;2.42;;;;;;;18.17;82.53;101264.25;5193239;28;20033;-72
2023/10/05 09:28:33;;;;;;;7.07;2.55;;;;;;;17.78;83.59;101255.88;5208884;28;20029;-72
2023/10/05 09:31:07;;;;;;;11.05;3.33;;;;;;;17.64;83.29;101257.56;5212786;28;20044;-72
2023/10/05 09:33:49;;;;;;;7.30;2.58;;;;;;;17.52;84.27;101261.69;5210450;28;20420;-72
2023/10/05 09:36:19;;;;;;;12.57;2.78;;;;;;;17.44;84.58;101263.88;5213378;28;20031;-73
2023/10/05 09:38:51;;;;;;;6.57;2.60;;;;;;;17.57;84.45;101259.66;5194150;28;20025;-72
2023/10/05 09:41:25;;;;;;;9.40;3.13;;;;;;;17.48;85.59;101260.13;5196633;28;20029;-72
2023/10/05 09:44:04;;;;;;;10.50;2.63;;;;;;;17.78;84.21;101262.94;5213106;28;20022;-73
2023/10/05 09:46:36;;;;;;;8.40;2.72;;;;;;;17.96;83.61;101267.22;5211826;28;20059;-72
2023/10/05 09:49:09;;;;;;;9.80;2.42;;;;;;;17.98;83.17;101265.38;5197124;28;20021;-72
2023/10/05 09:51:43;;;;;;;9.52;3.05;;;;;;;17.87;83.62;101281.81;5198779;28;20117;-73
2023/10/05 09:54:15;;;;;;;13.40;2.72;;;;;;;17.71;83.17;101272.13;5198627;28;20083;-73
2023/10/05 09:56:47;;;;;;;10.00;2.53;;;;;;;17.68;83.77;101277.59;5198357;28;20052;-72
2023/10/05 09:59:18;;;;;;;8.32;2.83;;;;;;;17.77;83.80;101282.38;5219527;28;20048;-72
2023/10/05 10:01:50;;;;;;;8.55;2.88;;;;;;;17.80;83.91;101282.25;5197611;28;20124;-72
2023/10/05 10:04:36;;;;;;;12.82;2.88;;;;;;;17.82;83.94;101280.38;5195066;28;20029;-73
2023/10/05 10:07:24;;;;;;;7.00;2.55;;;;;;;17.81;84.17;101291.88;5198315;28;20025;-72
2023/10/05 10:09:55;;;;;;;8.80;2.08;;;;;;;17.78;83.93;101287.59;5210767;28;20083;-73
2023/10/05 10:12:33;;;;;;;7.15;2.60;;;;;;;17.80;84.92;101293.66;5189438;28;20123;-72
2023/10/05 10:15:05;;;;;;;7.28;2.42;;;;;;;17.76;84.58;101280.66;5212099;28;20071;-73
2023/10/05 10:17:35;;;;;;;12.13;2.72;;;;;;;17.72;84.80;101284.41;5210787;28;20131;-72
2023/10/05 10:20:34;;;;;;;6.05;2.33;;;;;;;17.82;86.01;101281.19;5215462;28;20037;-73
2023/10/05 10:23:21;;;;;;;7.88;2.40;;;;;;;17.80;84.13;101284.88;5214583;28;20033;-73
2023/10/05 10:26:05;;;;;;;7.97;2.72;;;;;;;17.97;83.13;101283.00;5190427;28;20486;-72
2023/10/05 10:31:16;;;;;;;8.57;2.47;;;;;;;18.07;84.37;101283.38;5212649;28;20024;-73
2023/10/05 10:33:52;;;;;;;6.22;2.15;;;;;;;18.21;83.58;101278.16;5191214;28;20508;-72
2023/10/05 10:36:46;;;;;;;7.38;2.20;;;;;;;18.25;82.04;101279.69;5196394;28;20029;-72
2023/10/05 10:39:29;;;;;;;7.43;2.17;;;;;;;18.27;82.70;101288.41;5212833;28;20032;-72
2023/10/05 10:42:19;;;;;;;9.80;2.30;;;;;;;18.32;82.69;101291.72;5209792;28;20516;-73
2023/10/05 10:47:22;;;;;;;10.43;2.50;;;;;;;18.41;82.17;101286.75;5215821;28;20056;-72
2023/10/05 10:50:14;;;;;;;10.60;2.03;;;;;;;18.56;82.43;101282.38;5194568;28;20031;-72
2023/10/05 10:52:49;;;;;;;7.68;1.80;;;;;;;18.66;81.87;101292.34;5195956;28;20083;-72
2023/10/05 10:55:21;;;;;;;7.72;1.88;;;;;;;18.81;82.39;101287.03;5216379;28;20029;-73
2023/10/05 10:57:54;;;;;;;6.18;1.67;;;;;;;18.72;80.74;101293.78;5212628;28;20025;-73
2023/10/05 11:03:27;;;;;;;10.18;2.17;;;;;;;18.66;81.13;101287.03;5199759;28;20120;-72
2023/10/05 11:05:58;;;;;;;8.75;2.00;;;;;;;18.68;81.44;101295.75;5213490;28;20107;-72
2023/10/05 11:08:33;;;;;;;7.70;2.15;;;;;;;18.36;81.45;101301.19;5196106;28;20029;-72
2023/10/05 11:11:09;;;;;;;7.60;2.10;;;;;;;17.89;83.12;101302.88;5208084;28;20036;-73
2023/10/05 11:13:44;;;;;;;8.40;2.17;;;;;;;17.84;84.07;101307.56;5208372;28;20368;-72
2023/10/05 11:16:15;;;;;;;9.65;2.20;;;;;;;17.67;84.33;101308.47;5213475;28;20108;-72
2023/10/05 11:18:58;;;;;;;7.70;2.10;;;;;;;17.53;84.72;101304.84;5211953;28;20039;-72
2023/10/05 11:21:35;;;;;;;7.93;2.03;;;;;;;17.60;85.07;101296.50;5214467;28;20554;-72
2023/10/05 11:24:06;;;;;;;7.10;2.00;;;;;;;17.60;85.62;101300.94;5210343;28;20071;-72
2023/10/05 11:27:05;;;;;;;6.68;2.05;;;;;;;17.65;85.29;101305.03;5215261;28;20025;-73
2023/10/05 11:29:42;;;;;;;8.45;1.85;;;;;;;17.71;85.46;101314.44;5211407;28;20056;-72
2023/10/05 11:32:13;;;;;;;7.97;1.90;;;;;;;17.46;85.74;101298.19;5212959;28;20055;-72
2023/10/05 11:34:45;;;;;;;5.80;1.90;;;;;;;17.44;86.47;101305.31;5197014;28;20060;-72
2023/10/05 11:37:18;;;;;;;8.48;1.95;;;;;;;17.59;85.77;101299.22;5213838;28;20059;-73
2023/10/05 11:39:58;;;;;;;7.68;2.00;;;;;;;17.62;86.54;101304.38;5213733;28;20243;-72
2023/10/05 11:42:34;;;;;;;7.70;1.50;;;;;;;17.76;85.82;101307.13;5212779;28;20024;-72
2023/10/05 11:45:13;;;;;;;6.05;1.50;;;;;;;17.58;85.81;101302.81;5211869;28;20041;-73
2023/10/05 11:47:52;;;;;;;10.95;2.05;;;;;;;17.47;86.88;101310.47;5212612;28;20810;-73
2023/10/05 11:50:32;;;;;;;8.25;2.25;;;;;;;17.59;86.78;101304.50;5215519;28;20025;-72
2023/10/05 11:53:11;;;;;;;6.82;1.90;;;;;;;17.55;87.23;101300.31;5212393;28;20118;-73
2023/10/05 11:55:44;;;;;;;8.00;2.10;;;;;;;17.48;86.56;101296.31;5207110;28;20031;-73
2023/10/05 11:58:18;;;;;;;12.43;2.45;;;;;;;17.43;87.01;101304.47;5188421;28;20471;-72
2023/10/05 12:00:48;;;;;;;8.70;2.03;;;;;;;17.48;87.43;101306.88;5210532;28;20036;-72
2023/10/05 12:03:19;;;;;;;8.52;1.88;;;;;;;17.41;88.55;101302.84;5194753;28;20490;-73
2023/10/05 12:05:49;;;;;;;9.63;2.00;;;;;;;17.46;88.97;101314.88;5214111;28;20537;-73
2023/10/05 12:08:19;;;;;;;10.05;2.20;;;;;;;17.52;88.40;101300.50;5195660;28;20041;-72